Time;durP1;ratioP1;P1;durP2;ratioP2;P2;SDS_P1;SDS_P2;PMS_P1;PMS_P2;Temp;Humidity;BMP_temperature;BMP_pressure;BME280_temperature;BME280_humidity;BME280_pressure;Samples;Min_cycle;Max_cycle;Signal;HPM_P1;HPM_P2
2023/08/15 00:00:28;;;;;;;7.07;4.53;;;25.60;99.90;;;;;;5052980;28;20350;-74
2023/08/15 00:02:54;;;;;;;5.85;4.60;;;25.60;99.90;;;;;;5052907;28;20210;-74
2023/08/15 00:05:21;;;;;;;5.55;4.15;;;25.70;99.90;;;;;;5053120;28;20685;-74
2023/08/15 00:07:49;;;;;;;5.35;4.32;;;25.70;99.90;;;;;;5053160;28;20207;-74
2023/08/15 00:10:16;;;;;;;7.57;4.68;;;25.60;99.90;;;;;;5039358;28;20207;-73
2023/08/15 00:12:44;;;;;;;5.88;4.50;;;25.50;99.90;;;;;;5053272;28;20242;-73
2023/08/15 00:15:12;;;;;;;7.35;4.78;;;25.50;99.90;;;;;;5067111;28;20295;-74
2023/08/15 00:17:39;;;;;;;6.38;4.60;;;25.50;99.90;;;;;;5053352;28;20217;-75
2023/08/15 00:20:07;;;;;;;7.60;4.40;;;25.50;99.90;;;;;;5052441;28;20301;-73
2023/08/15 00:22:34;;;;;;;6.68;4.82;;;25.60;99.90;;;;;;5051738;28;20215;-73
2023/08/15 00:25:01;;;;;;;8.82;4.97;;;25.60;99.90;;;;;;5052284;28;20214;-73
2023/08/15 00:27:28;;;;;;;5.45;4.60;;;25.60;99.90;;;;;;5052601;28;20237;-73
2023/08/15 00:29:56;;;;;;;5.55;4.30;;;25.60;99.90;;;;;;5052352;28;20686;-73
2023/08/15 00:32:23;;;;;;;7.60;4.95;;;25.70;99.90;;;;;;5039175;28;20258;-72
2023/08/15 00:34:50;;;;;;;5.47;4.43;;;25.60;99.90;;;;;;5052210;28;20698;-73
2023/08/15 00:37:17;;;;;;;5.45;3.78;;;25.50;99.90;;;;;;5052536;28;20235;-73
2023/08/15 00:39:44;;;;;;;5.47;3.72;;;25.40;99.90;;;;;;5052501;28;20272;-73
2023/08/15 00:42:11;;;;;;;6.03;4.03;;;25.40;99.90;;;;;;5052482;28;20249;-74
2023/08/15 00:44:42;;;;;;;4.68;3.63;;;25.30;99.90;;;;;;5052798;28;20250;-73
2023/08/15 00:47:11;;;;;;;5.68;3.45;;;25.30;99.90;;;;;;5052322;28;20214;-77
2023/08/15 00:49:38;;;;;;;5.55;3.30;;;25.20;99.90;;;;;;5052361;28;20593;-76
2023/08/15 00:52:06;;;;;;;7.72;4.25;;;25.20;99.90;;;;;;5050681;28;20242;-76
2023/08/15 00:54:33;;;;;;;9.10;3.67;;;25.20;99.90;;;;;;5052545;28;20217;-75
2023/08/15 00:57:00;;;;;;;5.85;4.13;;;25.20;99.90;;;;;;5052328;28;20235;-76
2023/08/15 00:59:26;;;;;;;5.60;3.83;;;25.10;99.90;;;;;;5052052;28;20266;-75
2023/08/15 01:01:54;;;;;;;4.65;3.65;;;25.10;99.90;;;;;;5044616;28;20238;-76
2023/08/15 01:04:23;;;;;;;6.47;4.05;;;25.00;99.90;;;;;;5051709;28;20207;-76
2023/08/15 01:06:50;;;;;;;5.47;3.80;;;25.00;99.90;;;;;;5051819;28;20257;-75
2023/08/15 01:09:17;;;;;;;4.75;3.88;;;25.00;99.90;;;;;;5059093;28;20245;-75
2023/08/15 01:11:54;;;;;;;5.60;3.47;;;25.00;99.90;;;;;;5052401;28;20242;-75
2023/08/15 01:14:23;;;;;;;6.15;3.38;;;25.00;99.90;;;;;;5051782;28;20206;-74
2023/08/15 01:16:53;;;;;;;3.90;3.03;;;25.00;99.90;;;;;;5051489;28;20276;-73
2023/08/15 01:19:39;;;;;;;5.00;3.15;;;24.90;99.90;;;;;;5051064;28;20255;-72
2023/08/15 01:22:15;;;;;;;4.47;3.45;;;25.00;99.90;;;;;;5051615;28;20214;-72
2023/08/15 01:24:43;;;;;;;5.22;3.05;;;25.00;99.90;;;;;;5051932;28;20230;-74
2023/08/15 01:27:10;;;;;;;6.95;3.45;;;24.90;99.90;;;;;;5051761;28;20249;-75
2023/08/15 01:29:37;;;;;;;5.68;3.72;;;24.70;99.90;;;;;;5051511;28;20639;-77
2023/08/15 01:32:11;;;;;;;4.05;3.58;;;24.70;99.90;;;;;;5051078;28;20254;-78
2023/08/15 01:34:45;;;;;;;7.10;3.30;;;24.70;99.90;;;;;;5051429;28;20203;-75
2023/08/15 01:37:21;;;;;;;6.40;4.05;;;24.70;99.90;;;;;;5052036;28;20206;-78
2023/08/15 01:39:51;;;;;;;4.25;3.22;;;24.70;99.90;;;;;;5051015;28;20250;-74
2023/08/15 01:42:21;;;;;;;6.15;3.40;;;24.50;99.90;;;;;;5051411;28;20688;-76
2023/08/15 01:44:50;;;;;;;8.52;4.13;;;24.50;99.90;;;;;;5050860;28;20202;-74
2023/08/15 01:47:17;;;;;;;4.07;3.35;;;24.60;99.90;;;;;;5051218;28;20674;-74
2023/08/15 01:49:43;;;;;;;5.18;4.28;;;24.50;99.90;;;;;;5051487;28;20206;-71
2023/08/15 01:52:10;;;;;;;6.15;3.38;;;24.50;99.90;;;;;;5051386;28;20241;-72
2023/08/15 01:54:37;;;;;;;13.02;3.30;;;24.50;99.90;;;;;;5050932;28;20241;-74
2023/08/15 01:57:06;;;;;;;4.43;3.15;;;24.40;99.90;;;;;;5050873;28;20253;-73
2023/08/15 01:59:32;;;;;;;6.30;3.30;;;24.50;99.90;;;;;;5051322;28;20261;-72
2023/08/15 02:01:59;;;;;;;4.50;2.90;;;24.50;99.90;;;;;;5050244;28;20239;-72
2023/08/15 02:04:26;;;;;;;4.25;2.83;;;24.40;99.90;;;;;;5050582;28;20650;-75
2023/08/15 02:06:53;;;;;;;4.00;3.20;;;24.40;99.90;;;;;;5050617;28;20292;-70
2023/08/15 02:09:20;;;;;;;4.40;2.95;;;24.50;99.90;;;;;;5050729;28;20245;-71
2023/08/15 02:11:47;;;;;;;4.45;3.08;;;24.50;99.90;;;;;;5050513;28;20242;-70
2023/08/15 02:14:15;;;;;;;6.07;3.95;;;24.50;99.90;;;;;;5051169;28;20257;-75
2023/08/15 02:16:42;;;;;;;7.47;3.30;;;24.50;99.90;;;;;;5051066;28;20246;-77
2023/08/15 02:19:09;;;;;;;5.35;3.10;;;24.40;99.90;;;;;;5050529;28;20218;-75
2023/08/15 02:21:36;;;;;;;7.47;3.65;;;24.40;99.90;;;;;;5050651;28;20265;-75
2023/08/15 02:24:03;;;;;;;3.65;2.97;;;24.40;99.90;;;;;;5049942;28;20203;-77
2023/08/15 02:26:30;;;;;;;7.03;2.90;;;24.40;99.90;;;;;;5050728;28;20210;-77
2023/08/15 02:28:56;;;;;;;4.22;3.15;;;24.40;99.90;;;;;;5035943;28;20650;-77
2023/08/15 02:31:27;;;;;;;3.88;3.17;;;24.40;99.90;;;;;;5050584;28;20268;-75
2023/08/15 02:33:55;;;;;;;5.70;3.40;;;24.30;99.90;;;;;;5050000;28;20635;-75
2023/08/15 02:36:22;;;;;;;4.57;3.35;;;24.30;99.90;;;;;;5050561;28;20242;-75
2023/08/15 02:38:49;;;;;;;5.22;3.28;;;24.30;99.90;;;;;;5050325;28;20242;-74
2023/08/15 02:41:16;;;;;;;5.35;3.13;;;24.40;99.90;;;;;;5050117;28;20753;-76
2023/08/15 02:43:43;;;;;;;5.07;3.05;;;24.30;99.90;;;;;;5050922;28;20207;-74
2023/08/15 02:46:10;;;;;;;5.78;3.20;;;24.40;99.90;;;;;;5050145;28;20299;-72
2023/08/15 02:48:38;;;;;;;3.85;2.40;;;24.30;99.90;;;;;;5050289;28;20242;-72
2023/08/15 02:51:07;;;;;;;6.75;2.88;;;24.30;99.90;;;;;;5049745;28;20296;-72
2023/08/15 02:53:34;;;;;;;6.20;2.95;;;24.20;99.90;;;;;;5050368;28;20781;-71
2023/08/15 02:56:01;;;;;;;4.05;2.75;;;24.20;99.90;;;;;;5049920;28;20294;-72
2023/08/15 02:58:28;;;;;;;3.60;2.17;;;24.10;99.90;;;;;;5050498;28;20294;-72
2023/08/15 03:00:55;;;;;;;3.03;2.55;;;24.10;99.90;;;;;;5049576;28;20680;-72
2023/08/15 03:03:22;;;;;;;4.65;2.45;;;24.10;99.90;;;;;;5050104;28;20211;-72
2023/08/15 03:05:50;;;;;;;4.20;2.40;;;24.10;99.90;;;;;;5049876;28;20242;-73
2023/08/15 03:08:17;;;;;;;7.25;2.05;;;24.00;99.90;;;;;;5050109;28;20206;-73
2023/08/15 03:10:44;;;;;;;5.43;2.50;;;24.00;99.90;;;;;;5050641;28;20701;-72
2023/08/15 03:13:11;;;;;;;5.55;2.72;;;24.00;99.90;;;;;;5050426;28;20238;-72
2023/08/15 03:15:38;;;;;;;4.35;2.55;;;23.80;99.90;;;;;;5051353;28;20230;-72
2023/08/15 03:18:05;;;;;;;4.22;2.55;;;23.90;99.90;;;;;;5053675;28;20207;-73
2023/08/15 03:20:32;;;;;;;5.30;2.63;;;23.80;99.90;;;;;;5053845;28;20238;-74
2023/08/15 03:23:00;;;;;;;4.03;2.17;;;23.80;99.90;;;;;;5053785;28;20674;-74
2023/08/15 03:25:27;;;;;;;6.70;2.88;;;23.80;99.90;;;;;;5053941;28;20207;-73
2023/08/15 03:27:54;;;;;;;3.40;2.33;;;23.80;99.90;;;;;;5053274;28;20238;-73
2023/08/15 03:30:21;;;;;;;9.30;2.72;;;23.80;99.90;;;;;;5053851;28;20297;-74
2023/08/15 03:32:48;;;;;;;4.90;2.17;;;23.80;99.90;;;;;;5053309;28;20678;-75
2023/08/15 03:35:15;;;;;;;4.72;2.35;;;23.80;99.90;;;;;;5054022;28;20249;-74
2023/08/15 03:37:42;;;;;;;6.47;3.13;;;23.80;99.90;;;;;;5067890;28;20230;-74
2023/08/15 03:40:12;;;;;;;4.70;2.67;;;23.70;99.90;;;;;;5053737;28;20230;-76
2023/08/15 03:42:38;;;;;;;3.92;1.70;;;23.70;99.90;;;;;;5053450;28;20207;-77
2023/08/15 03:45:06;;;;;;;6.95;2.13;;;23.70;99.90;;;;;;5053312;28;20288;-75
2023/08/15 03:47:33;;;;;;;3.92;2.22;;;23.80;99.90;;;;;;5053341;28;20731;-73
2023/08/15 03:50:00;;;;;;;7.95;2.55;;;23.80;99.90;;;;;;5053481;28;20257;-75
2023/08/15 03:52:27;;;;;;;5.75;2.53;;;23.80;99.90;;;;;;5053795;28;20253;-74
2023/08/15 03:54:54;;;;;;;4.35;2.22;;;23.80;99.90;;;;;;5052959;28;20199;-74
2023/08/15 03:57:22;;;;;;;6.32;2.28;;;23.80;99.90;;;;;;5053288;28;20243;-72
2023/08/15 03:59:49;;;;;;;4.32;2.13;;;23.80;99.90;;;;;;5052563;28;20230;-71
2023/08/15 04:02:16;;;;;;;3.85;2.55;;;23.80;99.90;;;;;;5053519;28;20207;-73
2023/08/15 04:04:43;;;;;;;3.80;1.67;;;23.80;99.90;;;;;;5053612;28;20210;-72
2023/08/15 04:07:10;;;;;;;4.60;2.30;;;23.80;99.90;;;;;;5053409;28;20238;-73
2023/08/15 04:09:36;;;;;;;2.88;2.35;;;23.80;99.90;;;;;;5053154;28;20207;-74
2023/08/15 04:12:04;;;;;;;6.35;3.42;;;23.70;99.90;;;;;;5052539;28;20723;-75
2023/08/15 04:14:32;;;;;;;4.95;2.63;;;23.80;99.90;;;;;;5052979;28;20242;-74
2023/08/15 04:16:59;;;;;;;7.55;2.15;;;23.80;99.90;;;;;;5052852;28;20250;-74
2023/08/15 04:19:26;;;;;;;4.95;2.42;;;23.70;99.90;;;;;;5053002;28;20242;-75
2023/08/15 04:21:53;;;;;;;6.82;2.90;;;23.70;99.90;;;;;;5052561;28;20768;-74
2023/08/15 04:24:20;;;;;;;6.65;2.33;;;23.70;99.90;;;;;;5052834;28;20242;-75
2023/08/15 04:26:47;;;;;;;4.30;2.40;;;23.80;99.90;;;;;;5052261;28;20211;-74
2023/08/15 04:29:13;;;;;;;6.90;2.22;;;23.80;99.90;;;;;;5052888;28;20257;-75
2023/08/15 04:31:42;;;;;;;2.38;1.95;;;23.70;99.90;;;;;;5053024;28;20249;-74
2023/08/15 04:34:09;;;;;;;5.63;3.05;;;23.70;99.90;;;;;;5052645;28;20298;-75
2023/08/15 04:36:36;;;;;;;3.03;2.10;;;23.60;99.90;;;;;;5052753;28;20206;-75
2023/08/15 04:39:03;;;;;;;3.65;2.97;;;23.50;99.90;;;;;;5052097;28;20207;-75
2023/08/15 04:41:30;;;;;;;3.88;2.25;;;23.60;99.90;;;;;;5052325;28;20237;-75
2023/08/15 04:43:57;;;;;;;7.15;2.53;;;23.50;99.90;;;;;;5052155;28;20720;-74
2023/08/15 04:46:24;;;;;;;4.28;2.55;;;23.40;99.90;;;;;;5052379;28;20280;-74
2023/08/15 04:48:52;;;;;;;6.72;2.22;;;23.40;99.90;;;;;;5052336;28;20215;-74
2023/08/15 04:51:19;;;;;;;2.60;1.90;;;23.50;99.90;;;;;;5052396;28;20231;-74
2023/08/15 04:53:46;;;;;;;6.45;3.22;;;23.60;99.90;;;;;;5052363;28;20207;-73
2023/08/15 04:56:13;;;;;;;6.07;2.38;;;23.60;99.90;;;;;;5052295;28;20319;-72
2023/08/15 04:58:40;;;;;;;4.20;1.80;;;23.70;99.90;;;;;;5052714;28;20298;-73
2023/08/15 05:01:07;;;;;;;3.63;2.38;;;23.80;99.90;;;;;;5051504;28;20308;-73
2023/08/15 05:03:34;;;;;;;2.80;2.47;;;23.70;99.90;;;;;;5052326;28;20217;-72
2023/08/15 05:06:03;;;;;;;4.57;2.25;;;23.70;99.90;;;;;;5051802;28;20210;-73
2023/08/15 05:08:30;;;;;;;3.88;2.35;;;23.60;99.90;;;;;;5045548;28;20762;-72
2023/08/15 05:10:57;;;;;;;3.40;2.05;;;23.60;99.90;;;;;;5051329;28;20211;-73
2023/08/15 05:13:24;;;;;;;5.57;2.60;;;23.60;99.90;;;;;;5051881;28;20199;-73
2023/08/15 05:15:51;;;;;;;7.85;2.72;;;23.60;99.90;;;;;;5042973;28;20207;-73
2023/08/15 05:18:18;;;;;;;5.35;2.72;;;23.60;99.90;;;;;;5051883;28;20257;-73
2023/08/15 05:20:47;;;;;;;5.07;2.35;;;23.60;99.90;;;;;;5051517;28;20230;-73
2023/08/15 05:23:15;;;;;;;3.47;2.28;;;23.60;99.90;;;;;;5051972;28;20207;-73
2023/08/15 05:25:43;;;;;;;2.97;1.85;;;23.50;99.90;;;;;;5051721;28;20211;-73
2023/08/15 05:28:11;;;;;;;6.20;2.65;;;23.50;99.90;;;;;;5048851;28;20207;-73
2023/08/15 05:30:38;;;;;;;7.13;2.50;;;23.50;99.90;;;;;;5051700;28;20211;-72
2023/08/15 05:33:05;;;;;;;3.63;2.00;;;23.50;99.90;;;;;;5050974;28;20243;-72
2023/08/15 05:35:33;;;;;;;5.32;2.38;;;23.60;99.90;;;;;;5051286;28;20701;-72
2023/08/15 05:38:00;;;;;;;2.95;2.38;;;23.50;99.90;;;;;;5044930;28;20243;-72
2023/08/15 05:40:29;;;;;;;4.50;2.28;;;23.50;99.90;;;;;;5051254;28;20206;-73
2023/08/15 05:42:56;;;;;;;3.00;2.10;;;23.60;99.90;;;;;;5049868;28;20238;-72
2023/08/15 05:45:23;;;;;;;5.00;2.30;;;23.60;99.90;;;;;;5050544;28;20247;-72
2023/08/15 05:47:50;;;;;;;2.90;2.10;;;23.50;99.90;;;;;;5049569;28;20300;-73
2023/08/15 05:50:18;;;;;;;4.40;2.42;;;23.50;99.90;;;;;;5050217;28;20206;-72
2023/08/15 05:52:45;;;;;;;4.60;3.08;;;23.50;99.90;;;;;;5050378;28;20239;-73
2023/08/15 05:55:12;;;;;;;7.80;2.47;;;23.50;99.90;;;;;;5050797;28;20203;-74
2023/08/15 05:57:40;;;;;;;5.38;2.38;;;23.60;99.90;;;;;;5050390;28;20203;-77
2023/08/15 06:00:09;;;;;;;4.65;2.20;;;23.60;99.90;;;;;;5050224;28;20210;-73
2023/08/15 06:02:38;;;;;;;3.97;1.92;;;23.60;99.90;;;;;;5050567;28;20604;-73
2023/08/15 06:05:06;;;;;;;4.05;1.88;;;23.60;99.90;;;;;;5045778;28;20239;-74
2023/08/15 06:07:33;;;;;;;4.22;2.22;;;23.50;99.90;;;;;;5044344;28;20814;-74
2023/08/15 06:10:01;;;;;;;3.88;1.90;;;23.60;99.90;;;;;;5047605;28;20211;-72
2023/08/15 06:12:28;;;;;;;3.28;2.75;;;23.60;99.90;;;;;;5046186;28;20203;-74
2023/08/15 06:14:56;;;;;;;4.78;2.15;;;23.50;99.90;;;;;;5049529;28;20264;-72
2023/08/15 06:17:23;;;;;;;2.42;1.80;;;23.50;99.90;;;;;;5048564;28;20291;-69
2023/08/15 06:19:50;;;;;;;4.15;1.77;;;23.60;99.90;;;;;;5040679;28;20246;-71
2023/08/15 06:22:17;;;;;;;4.25;1.90;;;23.50;99.90;;;;;;5044305;28;20611;-70
2023/08/15 06:24:44;;;;;;;3.97;1.95;;;23.50;99.90;;;;;;5049518;28;20253;-70
2023/08/15 06:27:11;;;;;;;4.63;2.20;;;23.40;99.90;;;;;;5048673;28;20246;-68
2023/08/15 06:29:38;;;;;;;2.95;1.92;;;23.20;99.90;;;;;;5038519;28;20210;-69
2023/08/15 06:32:08;;;;;;;3.17;1.95;;;23.20;99.90;;;;;;5049619;28;20218;-69
2023/08/15 06:34:36;;;;;;;4.25;2.20;;;23.10;99.90;;;;;;5049574;28;20214;-69
2023/08/15 06:37:04;;;;;;;2.95;2.00;;;23.10;99.90;;;;;;5049908;28;20266;-70
2023/08/15 06:39:31;;;;;;;5.22;2.17;;;23.30;99.90;;;;;;5050242;28;20290;-69
2023/08/15 06:41:58;;;;;;;2.55;2.03;;;23.50;99.90;;;;;;5050033;28;20230;-69
2023/08/15 06:44:24;;;;;;;4.18;2.75;;;23.70;99.90;;;;;;5050054;28;20673;-69
2023/08/15 06:46:51;;;;;;;4.45;2.13;;;23.60;99.90;;;;;;5050109;28;20242;-69
2023/08/15 06:49:19;;;;;;;2.65;2.20;;;23.60;99.90;;;;;;5049730;28;20238;-69
2023/08/15 06:51:46;;;;;;;2.28;1.88;;;23.50;99.90;;;;;;5049288;28;20242;-69
2023/08/15 06:54:13;;;;;;;1.88;1.65;;;23.60;99.90;;;;;;5050395;28;20250;-71
2023/08/15 06:56:40;;;;;;;4.05;1.90;;;23.70;99.90;;;;;;5050459;28;20669;-71
2023/08/15 06:59:08;;;;;;;5.50;3.10;;;23.80;99.90;;;;;;5046643;28;20281;-71
2023/08/15 07:01:35;;;;;;;3.53;2.70;;;24.00;99.90;;;;;;5048268;28;20262;-71
2023/08/15 07:04:01;;;;;;;5.53;2.17;;;23.80;99.90;;;;;;5048924;28;20203;-71
2023/08/15 07:06:30;;;;;;;4.00;2.67;;;23.80;99.90;;;;;;5041828;28;20242;-70
2023/08/15 07:08:57;;;;;;;3.47;2.03;;;23.80;99.90;;;;;;5049677;28;20261;-70
2023/08/15 07:11:24;;;;;;;3.83;1.98;;;23.80;99.90;;;;;;5037633;28;20241;-73
2023/08/15 07:13:51;;;;;;;4.30;2.28;;;23.70;99.90;;;;;;5048356;28;20214;-68
2023/08/15 07:16:18;;;;;;;3.03;2.38;;;23.80;99.90;;;;;;5050098;28;20260;-70
2023/08/15 07:18:45;;;;;;;2.83;1.60;;;23.80;99.90;;;;;;5049928;28;20222;-69
2023/08/15 07:21:11;;;;;;;4.63;2.50;;;24.10;99.90;;;;;;5049627;28;20655;-73
2023/08/15 07:23:40;;;;;;;3.97;2.13;;;24.40;99.90;;;;;;5049750;28;20242;-74
2023/08/15 07:26:07;;;;;;;3.92;2.00;;;24.40;99.90;;;;;;5037122;28;20214;-70
2023/08/15 07:28:34;;;;;;;6.22;2.45;;;24.20;99.90;;;;;;5050141;28;20307;-70
2023/08/15 07:31:01;;;;;;;1.67;1.48;;;24.30;99.90;;;;;;5049471;28;20241;-72
2023/08/15 07:33:28;;;;;;;4.72;1.95;;;24.40;99.90;;;;;;5049992;28;20215;-69
2023/08/15 07:35:55;;;;;;;2.78;1.90;;;24.50;99.90;;;;;;5045356;28;20234;-73
2023/08/15 07:38:22;;;;;;;4.00;2.40;;;24.50;99.90;;;;;;5048350;28;20207;-70
2023/08/15 07:40:50;;;;;;;5.88;1.90;;;24.60;99.90;;;;;;5049211;28;20289;-71
2023/08/15 07:43:17;;;;;;;3.55;2.40;;;24.50;99.90;;;;;;5049903;28;20308;-71
2023/08/15 07:45:44;;;;;;;3.45;2.33;;;24.70;99.90;;;;;;5049833;28;20207;-70
2023/08/15 07:48:11;;;;;;;3.17;2.03;;;24.40;99.90;;;;;;5049544;28;20207;-72
2023/08/15 07:50:38;;;;;;;2.78;1.75;;;24.50;99.90;;;;;;5048468;28;20213;-71
2023/08/15 07:53:06;;;;;;;5.20;1.70;;;24.50;99.90;;;;;;5049277;28;20238;-69
2023/08/15 07:55:33;;;;;;;4.35;2.40;;;24.40;99.90;;;;;;5049967;28;20295;-70
2023/08/15 07:58:02;;;;;;;5.53;2.67;;;24.60;99.90;;;;;;5049270;28;20697;-69
2023/08/15 08:00:28;;;;;;;4.60;2.17;;;24.60;99.90;;;;;;5039631;28;20625;-71
2023/08/15 08:02:55;;;;;;;3.25;1.85;;;24.50;99.90;;;;;;5045280;28;20234;-72
2023/08/15 08:05:22;;;;;;;3.10;1.90;;;24.50;99.90;;;;;;5051901;28;20265;-74
2023/08/15 08:07:49;;;;;;;4.07;2.58;;;24.50;99.90;;;;;;5050903;28;20203;-74
2023/08/15 08:10:16;;;;;;;2.42;1.90;;;24.70;99.90;;;;;;5052264;28;20249;-76
2023/08/15 08:12:45;;;;;;;3.60;1.67;;;24.40;99.90;;;;;;5053145;28;20246;-78
2023/08/15 08:15:14;;;;;;;4.32;3.13;;;24.60;99.90;;;;;;5052368;28;20295;-74
2023/08/15 08:17:41;;;;;;;3.63;2.58;;;24.40;99.90;;;;;;5052872;28;20232;-75
2023/08/15 08:20:11;;;;;;;2.85;2.60;;;24.60;99.90;;;;;;5051959;28;20206;-76
2023/08/15 08:22:38;;;;;;;5.03;3.15;;;24.70;99.90;;;;;;5052301;28;20260;-73
2023/08/15 08:25:14;;;;;;;3.75;2.50;;;24.90;99.90;;;;;;5052105;28;20234;-74
2023/08/15 08:27:41;;;;;;;4.32;2.65;;;25.20;99.90;;;;;;5049599;28;20207;-72
2023/08/15 08:30:09;;;;;;;3.28;2.50;;;25.40;99.90;;;;;;5049926;28;20214;-72
2023/08/15 08:32:37;;;;;;;7.35;3.10;;;25.40;99.90;;;;;;5050123;28;20218;-70
2023/08/15 08:35:06;;;;;;;2.83;1.88;;;25.70;99.90;;;;;;5051895;28;20203;-70
2023/08/15 08:37:32;;;;;;;3.50;1.98;;;26.20;99.90;;;;;;5051598;28;20686;-70
2023/08/15 08:40:00;;;;;;;3.28;2.45;;;26.10;99.90;;;;;;5051716;28;20242;-71
2023/08/15 08:42:27;;;;;;;2.70;2.28;;;26.10;99.90;;;;;;5051816;28;20324;-69
2023/08/15 08:44:55;;;;;;;4.18;2.65;;;25.90;99.90;;;;;;5048267;28;20301;-70
2023/08/15 08:47:26;;;;;;;5.53;2.88;;;25.90;99.90;;;;;;5051006;28;20285;-70
2023/08/15 08:49:57;;;;;;;5.68;3.20;;;26.00;99.90;;;;;;5042225;28;20231;-69
2023/08/15 08:52:25;;;;;;;3.83;2.40;;;26.10;99.90;;;;;;5050488;28;20210;-73
2023/08/15 08:54:52;;;;;;;5.20;2.72;;;25.90;99.90;;;;;;5047519;28;20206;-71
2023/08/15 08:57:20;;;;;;;4.43;2.47;;;25.70;99.90;;;;;;5050700;28;20226;-71
2023/08/15 08:59:47;;;;;;;3.33;2.45;;;25.50;99.90;;;;;;5049586;28;20286;-70
2023/08/15 09:02:19;;;;;;;4.20;2.85;;;25.50;99.90;;;;;;5049424;28;20803;-70
2023/08/15 09:04:48;;;;;;;5.07;2.45;;;26.10;99.90;;;;;;5048798;28;20234;-70
2023/08/15 09:07:17;;;;;;;5.35;2.72;;;26.70;99.90;;;;;;5049798;28;20209;-73
2023/08/15 09:09:44;;;;;;;3.95;2.60;;;26.90;99.90;;;;;;5049291;28;20206;-72
2023/08/15 09:12:31;;;;;;;6.18;2.60;;;27.00;99.90;;;;;;5050525;28;20245;-70
2023/08/15 09:14:58;;;;;;;4.03;2.30;;;27.00;99.90;;;;;;5044670;28;20294;-73
2023/08/15 09:17:25;;;;;;;5.45;2.30;;;26.70;99.90;;;;;;5050981;28;20234;-72
2023/08/15 09:19:52;;;;;;;4.65;3.30;;;26.80;99.90;;;;;;5051001;28;20214;-70
2023/08/15 09:22:23;;;;;;;4.47;4.05;;;27.60;99.90;;;;;;5050861;28;20783;-71
2023/08/15 09:24:50;;;;;;;5.05;3.28;;;28.40;99.90;;;;;;5051033;28;20637;-69
2023/08/15 09:27:18;;;;;;;4.75;2.83;;;28.00;99.90;;;;;;5051108;28;20206;-71
2023/08/15 09:29:44;;;;;;;4.22;3.47;;;28.40;99.90;;;;;;5048551;28;20239;-71
2023/08/15 09:32:11;;;;;;;4.70;2.65;;;29.40;99.90;;;;;;5050388;28;20233;-71
2023/08/15 09:34:38;;;;;;;5.88;3.33;;;28.80;99.90;;;;;;5051329;28;20230;-70
2023/08/15 09:37:05;;;;;;;4.93;2.25;;;29.60;99.90;;;;;;5050533;28;20245;-72
2023/08/15 09:39:34;;;;;;;6.35;3.38;;;28.90;99.90;;;;;;5050845;28;20206;-70
2023/08/15 09:42:01;;;;;;;4.90;3.25;;;28.80;99.90;;;;;;5050631;28;20300;-72
2023/08/15 09:44:34;;;;;;;7.95;4.28;;;29.10;99.90;;;;;;5051090;28;20241;-71
2023/08/15 09:47:01;;;;;;;3.90;3.58;;;29.50;99.90;;;;;;5050170;28;20293;-72
2023/08/15 09:49:29;;;;;;;4.40;3.40;;;29.70;99.90;;;;;;5050896;28;20240;-70
2023/08/15 09:51:58;;;;;;;5.00;3.47;;;31.40;99.90;;;;;;5050075;28;20722;-70
2023/08/15 09:54:26;;;;;;;7.15;3.90;;;36.60;99.90;;;;;;5050825;28;20233;-73
2023/08/15 09:56:54;;;;;;;4.30;3.20;;;38.10;99.90;;;;;;5050417;28;20206;-71
2023/08/15 09:59:21;;;;;;;7.57;3.78;;;37.80;99.90;;;;;;5050286;28;20206;-70
2023/08/15 10:01:51;;;;;;;5.25;3.67;;;35.50;99.90;;;;;;5044863;28;20645;-72
2023/08/15 10:04:20;;;;;;;3.47;2.88;;;34.20;99.90;;;;;;5049788;28;20206;-72
2023/08/15 10:06:48;;;;;;;9.05;3.55;;;34.40;99.90;;;;;;5050160;28;20255;-71
2023/08/15 10:09:16;;;;;;;5.00;3.65;;;36.40;99.90;;;;;;5050225;28;20319;-71
2023/08/15 10:11:45;;;;;;;4.63;3.05;;;35.60;99.90;;;;;;5050809;28;20210;-71
2023/08/15 10:14:17;;;;;;;2.75;2.53;;;35.60;99.90;;;;;;5050683;28;20214;-71
2023/08/15 10:16:44;;;;;;;4.40;3.45;;;37.10;99.90;;;;;;5049835;28;20213;-71
2023/08/15 10:19:16;;;;;;;3.83;2.22;;;40.50;99.90;;;;;;5048154;28;20764;-70
2023/08/15 10:21:50;;;;;;;3.47;2.85;;;40.00;99.90;;;;;;5050720;28;20238;-70
2023/08/15 10:24:17;;;;;;;4.97;3.03;;;39.60;99.90;;;;;;5048899;28;20248;-70
2023/08/15 10:26:45;;;;;;;4.70;2.58;;;38.60;99.90;;;;;;5050375;28;20296;-71
2023/08/15 10:29:14;;;;;;;4.82;2.97;;;38.20;99.90;;;;;;5049854;28;20248;-70
2023/08/15 10:31:41;;;;;;;4.25;2.42;;;35.00;99.90;;;;;;5050333;28;20241;-70
2023/08/15 10:34:10;;;;;;;3.08;2.88;;;32.80;99.90;;;;;;5049550;28;20261;-71
2023/08/15 10:36:40;;;;;;;2.85;2.25;;;31.10;99.90;;;;;;5041769;28;20205;-71
2023/08/15 10:39:07;;;;;;;5.35;3.30;;;30.20;99.90;;;;;;5048947;28;20222;-71
2023/08/15 10:41:35;;;;;;;3.92;2.97;;;29.80;99.90;;;;;;5048910;28;20678;-73
2023/08/15 10:44:06;;;;;;;3.15;2.63;;;30.00;99.90;;;;;;5048977;28;20229;-71
2023/08/15 10:46:35;;;;;;;3.35;2.83;;;30.00;99.90;;;;;;5049688;28;20283;-71
2023/08/15 10:49:07;;;;;;;4.15;3.17;;;30.00;99.90;;;;;;5048977;28;20355;-69
2023/08/15 10:51:36;;;;;;;3.25;2.95;;;29.50;99.90;;;;;;5049740;28;20202;-72
2023/08/15 10:54:04;;;;;;;3.47;2.65;;;29.00;99.90;;;;;;5049150;28;20632;-70
2023/08/15 10:56:33;;;;;;;5.40;3.40;;;29.00;99.90;;;;;;5049607;28;20236;-70
2023/08/15 10:59:03;;;;;;;3.00;2.78;;;29.60;99.90;;;;;;5047779;28;20374;-72
2023/08/15 11:01:31;;;;;;;4.55;2.47;;;29.40;99.90;;;;;;5045020;28;20198;-72
2023/08/15 11:03:59;;;;;;;3.65;3.25;;;29.50;99.90;;;;;;5048540;28;20258;-72
2023/08/15 11:06:28;;;;;;;3.50;2.95;;;29.30;99.90;;;;;;5049504;28;20632;-74
2023/08/15 11:08:57;;;;;;;5.88;2.83;;;29.20;99.90;;;;;;5048196;28;20222;-71
2023/08/15 11:11:25;;;;;;;4.68;2.92;;;29.60;99.90;;;;;;5049407;28;20643;-71
2023/08/15 11:13:54;;;;;;;3.08;2.50;;;29.50;99.90;;;;;;5046702;28;20234;-72
2023/08/15 11:16:22;;;;;;;6.03;2.60;;;29.50;99.90;;;;;;5048687;28;20242;-71
2023/08/15 11:18:49;;;;;;;3.85;2.67;;;29.60;99.90;;;;;;5046756;28;20207;-71
2023/08/15 11:21:19;;;;;;;3.88;3.30;;;29.80;99.90;;;;;;5049855;28;20241;-71
2023/08/15 11:23:47;;;;;;;3.13;2.78;;;30.00;99.90;;;;;;5049072;28;20272;-71
2023/08/15 11:26:15;;;;;;;3.05;2.80;;;29.90;99.90;;;;;;5055498;28;20251;-72
2023/08/15 11:28:42;;;;;;;4.78;3.13;;;29.90;99.90;;;;;;5049826;28;20243;-70
2023/08/15 11:31:10;;;;;;;3.63;3.33;;;29.90;99.90;;;;;;5049097;28;20264;-71
2023/08/15 11:33:37;;;;;;;6.18;3.25;;;29.60;99.90;;;;;;5049030;28;20261;-71
2023/08/15 11:36:06;;;;;;;5.05;3.80;;;29.50;99.90;;;;;;5049182;28;20242;-74
2023/08/15 11:38:35;;;;;;;4.07;3.00;;;29.80;99.90;;;;;;5053368;28;20209;-70
2023/08/15 11:41:04;;;;;;;4.55;3.33;;;30.10;99.90;;;;;;5052766;28;20276;-70
2023/08/15 11:43:32;;;;;;;8.35;3.33;;;30.30;99.90;;;;;;5052906;28;20708;-70
2023/08/15 11:46:02;;;;;;;3.97;3.08;;;30.20;99.90;;;;;;5050253;28;20674;-71
2023/08/15 11:48:30;;;;;;;3.05;2.85;;;30.30;99.90;;;;;;5052684;28;20206;-72
2023/08/15 11:50:56;;;;;;;4.97;3.03;;;30.10;99.90;;;;;;5052382;28;20241;-72
2023/08/15 11:53:23;;;;;;;3.95;3.60;;;29.60;99.90;;;;;;5049314;28;20206;-72
2023/08/15 11:55:52;;;;;;;4.63;3.60;;;29.90;99.90;;;;;;5052127;28;20691;-72
2023/08/15 11:58:24;;;;;;;7.05;3.50;;;29.90;99.90;;;;;;5052839;28;20234;-73
2023/08/15 12:00:56;;;;;;;5.15;3.30;;;29.70;99.90;;;;;;5052480;28;20203;-72
2023/08/15 12:03:25;;;;;;;3.42;3.22;;;29.80;99.90;;;;;;5052188;28;20257;-71
2023/08/15 12:05:55;;;;;;;5.70;3.17;;;30.10;99.90;;;;;;5052079;28;20298;-70
2023/08/15 12:08:24;;;;;;;3.15;2.83;;;30.20;99.90;;;;;;5052687;28;20203;-71
2023/08/15 12:10:54;;;;;;;6.50;3.65;;;30.50;99.90;;;;;;5052161;28;20222;-71
2023/08/15 12:13:29;;;;;;;5.25;3.70;;;30.50;99.90;;;;;;5052790;28;20237;-70
2023/08/15 12:15:56;;;;;;;3.97;3.53;;;30.30;99.90;;;;;;5052001;28;20198;-73
2023/08/15 12:18:23;;;;;;;4.05;3.50;;;30.00;99.90;;;;;;5052351;28;20698;-70
2023/08/15 12:20:50;;;;;;;3.30;3.10;;;30.30;99.90;;;;;;5051151;28;20234;-73
2023/08/15 12:23:17;;;;;;;3.42;3.13;;;30.20;99.90;;;;;;5051678;28;20258;-73
2023/08/15 12:25:44;;;;;;;3.25;2.80;;;30.20;99.90;;;;;;5051563;28;20682;-72
2023/08/15 12:28:12;;;;;;;4.65;3.30;;;30.30;99.90;;;;;;5051938;28;20206;-71
2023/08/15 12:30:39;;;;;;;4.63;3.78;;;30.50;99.90;;;;;;5051097;28;20214;-71
2023/08/15 12:33:06;;;;;;;4.90;3.65;;;30.60;99.90;;;;;;5045881;28;20218;-70
2023/08/15 12:35:33;;;;;;;5.03;3.53;;;30.40;99.90;;;;;;5051944;28;20210;-70
2023/08/15 12:38:00;;;;;;;3.83;3.40;;;30.40;99.90;;;;;;5050165;28;20296;-70
2023/08/15 12:40:27;;;;;;;4.63;3.15;;;29.80;99.90;;;;;;5051714;28;20242;-74
2023/08/15 12:42:54;;;;;;;5.05;3.42;;;29.70;99.90;;;;;;5051967;28;20262;-71
2023/08/15 12:45:22;;;;;;;4.43;3.33;;;30.00;99.90;;;;;;5051522;28;20233;-70
2023/08/15 12:47:49;;;;;;;5.32;4.15;;;30.30;99.90;;;;;;5049242;28;20234;-72
2023/08/15 12:50:16;;;;;;;3.70;3.30;;;30.20;99.90;;;;;;5051664;28;20285;-72